Time;durP1;ratioP1;P1;durP2;ratioP2;P2;SDS_P1;SDS_P2;PMS_P1;PMS_P2;Temp;Humidity;BMP_temperature;BMP_pressure;BME280_temperature;BME280_humidity;BME280_pressure;Samples;Min_cycle;Max_cycle;Signal;HPM_P1;HPM_P2
2022/08/10 00:02:59;;;;;;;0.10;0.10;;;18.40;74.40;;;;;;5060254;28;20058;-73
2022/08/10 00:05:26;;;;;;;0.10;0.10;;;18.70;73.30;;;;;;5073429;28;20498;-73
2022/08/10 00:07:52;;;;;;;0.10;0.10;;;18.80;73.40;;;;;;5073129;28;20021;-73
2022/08/10 00:10:21;;;;;;;0.10;0.10;;;18.70;73.20;;;;;;5073285;28;20028;-73
2022/08/10 00:12:47;;;;;;;0.10;0.10;;;18.70;73.50;;;;;;5072360;28;20035;-73
2022/08/10 00:15:17;;;;;;;0.10;0.10;;;18.70;73.70;;;;;;5073222;28;20032;-73
2022/08/10 00:17:43;;;;;;;0.10;0.10;;;18.70;73.90;;;;;;5071646;28;20060;-73
2022/08/10 00:20:09;;;;;;;0.10;0.10;;;18.80;73.80;;;;;;5073121;28;20059;-73
2022/08/10 00:22:36;;;;;;;0.10;0.10;;;18.80;73.50;;;;;;5072985;28;20028;-73
2022/08/10 00:25:02;;;;;;;0.03;0.03;;;18.80;73.40;;;;;;5071744;28;20029;-73
2022/08/10 00:27:28;;;;;;;0.10;0.10;;;18.70;73.70;;;;;;5072936;28;20029;-73
2022/08/10 00:29:54;;;;;;;0.10;0.10;;;18.40;74.50;;;;;;5072866;28;20025;-73
2022/08/10 00:32:20;;;;;;;0.10;0.10;;;18.50;75.00;;;;;;5053864;28;20033;-73
2022/08/10 00:34:46;;;;;;;0.10;0.10;;;18.40;75.10;;;;;;5072769;28;20412;-73
2022/08/10 00:37:19;;;;;;;0.10;0.10;;;18.20;76.20;;;;;;5072850;28;20061;-73
2022/08/10 00:39:46;;;;;;;0.10;0.10;;;18.10;76.10;;;;;;5072672;28;20024;-73
2022/08/10 00:42:14;;;;;;;0.10;0.10;;;17.80;76.80;;;;;;5071200;28;20032;-73
2022/08/10 00:44:49;;;;;;;0.10;0.10;;;17.80;77.40;;;;;;5054718;28;20432;-73
2022/08/10 00:47:15;;;;;;;0.10;0.10;;;17.90;77.20;;;;;;5071311;28;20369;-73
2022/08/10 00:49:41;;;;;;;0.10;0.10;;;17.90;77.50;;;;;;5072587;28;20017;-73
2022/08/10 00:52:08;;;;;;;0.20;0.20;;;18.00;76.60;;;;;;5072489;28;20032;-73
2022/08/10 00:54:35;;;;;;;0.10;0.10;;;18.00;77.00;;;;;;5072434;28;20062;-73
2022/08/10 00:57:04;;;;;;;0.10;0.10;;;18.10;77.60;;;;;;5071162;28;20385;-73
2022/08/10 00:59:31;;;;;;;0.10;0.10;;;18.20;76.60;;;;;;5072484;28;20463;-73
2022/08/10 01:01:58;;;;;;;0.10;0.10;;;18.20;76.60;;;;;;5072308;28;20496;-73
2022/08/10 01:04:23;;;;;;;0.10;0.10;;;18.20;76.40;;;;;;5071152;28;20030;-73
2022/08/10 01:07:08;;;;;;;0.10;0.10;;;18.10;76.40;;;;;;5070961;28;20103;-73
2022/08/10 01:09:58;;;;;;;0.10;0.10;;;18.00;76.90;;;;;;5072268;28;20033;-73
2022/08/10 01:12:34;;;;;;;0.32;0.32;;;17.90;77.20;;;;;;5072258;28;20029;-73
2022/08/10 01:15:10;;;;;;;0.10;0.10;;;17.70;78.00;;;;;;5072285;28;20036;-73
2022/08/10 01:17:52;;;;;;;0.10;0.10;;;17.60;78.70;;;;;;5072118;28;20024;-73
2022/08/10 01:20:36;;;;;;;0.10;0.10;;;17.40;79.50;;;;;;5071035;28;20484;-73
2022/08/10 01:23:42;;;;;;;0.28;0.28;;;17.40;79.80;;;;;;5071083;28;20496;-73
2022/08/10 01:26:23;;;;;;;0.10;0.10;;;17.50;78.60;;;;;;5070843;28;20028;-73
2022/08/10 01:29:10;;;;;;;0.10;0.10;;;17.40;79.20;;;;;;5072090;28;20477;-73
2022/08/10 01:31:48;;;;;;;0.10;0.10;;;17.30;79.70;;;;;;5071973;28;20021;-73
2022/08/10 01:34:24;;;;;;;0.10;0.10;;;17.10;79.80;;;;;;5070761;28;20024;-73
2022/08/10 01:36:58;;;;;;;0.10;0.10;;;17.10;80.10;;;;;;5072069;28;20063;-73
2022/08/10 01:39:38;;;;;;;0.10;0.10;;;17.10;80.20;;;;;;5072049;28;20028;-73
2022/08/10 01:42:05;;;;;;;6.55;4.30;;;17.20;80.10;;;;;;5070592;28;20032;-73
2022/08/10 01:44:44;;;;;;;0.10;0.10;;;17.20;79.50;;;;;;5076194;28;20382;-73
2022/08/10 01:50:17;;;;;;;0.43;0.43;;;17.10;79.20;;;;;;5075997;28;20025;-73
2022/08/10 01:52:46;;;;;;;0.20;0.20;;;16.90;79.60;;;;;;5075905;28;20037;-73
2022/08/10 01:55:13;;;;;;;0.10;0.10;;;16.60;80.40;;;;;;5074542;28;20025;-73
2022/08/10 01:57:41;;;;;;;0.17;0.17;;;16.20;82.50;;;;;;5074547;28;20032;-74
2022/08/10 02:00:08;;;;;;;0.10;0.10;;;16.10;84.10;;;;;;5074722;28;20016;-74
2022/08/10 02:02:35;;;;;;;0.10;0.10;;;16.10;84.10;;;;;;5075760;28;20095;-74
2022/08/10 02:05:04;;;;;;;0.17;0.17;;;16.00;84.30;;;;;;5075627;28;20021;-74
2022/08/10 02:07:31;;;;;;;0.10;0.10;;;15.80;84.60;;;;;;5074661;28;20385;-74
2022/08/10 02:10:02;;;;;;;0.10;0.10;;;15.80;86.40;;;;;;5074218;28;20021;-74
2022/08/10 02:12:31;;;;;;;0.10;0.10;;;15.80;86.50;;;;;;5075697;28;20471;-74
2022/08/10 02:15:11;;;;;;;0.35;0.35;;;15.90;86.30;;;;;;5075424;28;20089;-74
2022/08/10 02:17:40;;;;;;;1.75;1.65;;;15.90;85.70;;;;;;5074170;28;20040;-74
2022/08/10 02:20:18;;;;;;;0.10;0.10;;;15.90;85.80;;;;;;5075408;28;20033;-74
2022/08/10 02:22:47;;;;;;;0.17;0.17;;;16.10;85.50;;;;;;5057318;28;20480;-74
2022/08/10 02:25:15;;;;;;;0.52;0.50;;;16.20;85.10;;;;;;5073944;28;20043;-74
2022/08/10 02:27:42;;;;;;;0.10;0.10;;;16.10;85.40;;;;;;5073884;28;20198;-74
2022/08/10 02:30:09;;;;;;;0.10;0.10;;;16.10;86.20;;;;;;5075185;28;20025;-74
2022/08/10 02:32:36;;;;;;;0.10;0.10;;;16.00;87.00;;;;;;5075187;28;20384;-74
2022/08/10 02:35:04;;;;;;;0.15;0.15;;;16.10;87.30;;;;;;5075049;28;20031;-74
2022/08/10 02:37:31;;;;;;;0.20;0.20;;;16.40;86.40;;;;;;5073690;28;20450;-74
2022/08/10 02:39:57;;;;;;;0.20;0.20;;;16.40;86.70;;;;;;5073637;28;20476;-74
2022/08/10 02:42:38;;;;;;;0.15;0.15;;;16.40;86.70;;;;;;5073491;28;20029;-74
2022/08/10 02:45:14;;;;;;;0.38;0.38;;;16.40;87.20;;;;;;5073610;28;20070;-74
2022/08/10 02:47:44;;;;;;;0.10;0.10;;;16.50;86.80;;;;;;5073616;28;20025;-74
2022/08/10 02:50:20;;;;;;;0.10;0.10;;;16.40;87.40;;;;;;5074901;28;20020;-74
2022/08/10 02:52:53;;;;;;;0.00;0.00;;;16.50;87.50;;;;;;5073518;28;20033;-74
2022/08/10 02:55:29;;;;;;;0.35;0.35;;;16.40;86.70;;;;;;5072371;28;20081;-74
2022/08/10 02:57:57;;;;;;;0.13;0.13;;;16.20;87.50;;;;;;5074605;28;20044;-74
2022/08/10 03:00:25;;;;;;;0.10;0.10;;;16.40;89.20;;;;;;5073376;28;20028;-74
2022/08/10 03:02:54;;;;;;;0.20;0.20;;;16.60;89.30;;;;;;5074588;28;20020;-74
2022/08/10 03:05:20;;;;;;;0.10;0.10;;;16.70;86.10;;;;;;5074524;28;20107;-74
2022/08/10 03:07:50;;;;;;;0.10;0.10;;;16.80;86.80;;;;;;5074429;28;20104;-74
2022/08/10 03:10:22;;;;;;;0.10;0.10;;;16.60;87.40;;;;;;5073304;28;20024;-74
2022/08/10 03:12:51;;;;;;;0.10;0.10;;;16.80;87.20;;;;;;5073219;28;20115;-74
2022/08/10 03:15:19;;;;;;;0.10;0.10;;;17.00;87.30;;;;;;5073060;28;20059;-74
2022/08/10 03:17:46;;;;;;;0.57;0.32;;;16.90;86.70;;;;;;5074249;28;20028;-74
2022/08/10 03:20:13;;;;;;;0.10;0.10;;;16.80;85.30;;;;;;5074441;28;20036;-74
2022/08/10 03:22:40;;;;;;;0.10;0.10;;;16.60;87.00;;;;;;5074273;28;20055;-74
2022/08/10 03:25:10;;;;;;;0.10;0.10;;;16.30;88.60;;;;;;5074213;28;20013;-74
2022/08/10 03:27:37;;;;;;;0.17;0.17;;;16.30;89.90;;;;;;5074078;28;20025;-74
2022/08/10 03:30:03;;;;;;;0.40;0.40;;;16.10;90.10;;;;;;5074015;28;20024;-74
2022/08/10 03:32:32;;;;;;;0.15;0.15;;;16.10;90.80;;;;;;5072818;28;20094;-74
2022/08/10 03:34:58;;;;;;;0.10;0.10;;;16.10;90.50;;;;;;5073963;28;20024;-74
2022/08/10 03:37:26;;;;;;;0.10;0.10;;;16.10;90.70;;;;;;5074007;28;20029;-74
2022/08/10 03:39:53;;;;;;;0.32;0.30;;;15.90;91.30;;;;;;5073933;28;20108;-74
2022/08/10 03:42:21;;;;;;;0.10;0.10;;;15.90;91.50;;;;;;5082935;22;20039;-73
2022/08/10 03:44:49;;;;;;;0.10;0.10;;;15.90;92.00;;;;;;5052923;28;20361;-72
2022/08/10 03:47:18;;;;;;;0.15;0.15;;;16.10;92.20;;;;;;5054059;28;20045;-73
2022/08/10 03:49:47;;;;;;;0.10;0.10;;;15.90;91.80;;;;;;5054512;28;20068;-73
2022/08/10 03:52:14;;;;;;;0.20;0.20;;;15.70;91.50;;;;;;5054324;28;20025;-73
2022/08/10 03:54:41;;;;;;;0.10;0.10;;;15.60;93.30;;;;;;5054211;28;20032;-73
2022/08/10 03:57:07;;;;;;;0.10;0.10;;;15.80;93.80;;;;;;5053535;28;20468;-73
2022/08/10 03:59:34;;;;;;;0.10;0.10;;;16.00;93.90;;;;;;5052791;28;20452;-73
2022/08/10 04:02:00;;;;;;;0.20;0.20;;;16.30;93.20;;;;;;5054067;28;20029;-73
2022/08/10 04:04:26;;;;;;;0.45;0.45;;;16.60;92.70;;;;;;5053961;28;20108;-73
2022/08/10 04:06:57;;;;;;;0.20;0.20;;;16.40;92.30;;;;;;5052230;28;20017;-73
2022/08/10 04:09:26;;;;;;;0.10;0.10;;;16.40;92.60;;;;;;5052584;28;20021;-73
2022/08/10 04:11:51;;;;;;;0.10;0.10;;;16.10;93.30;;;;;;5052258;28;20076;-73
2022/08/10 04:14:17;;;;;;;0.10;0.10;;;15.70;94.00;;;;;;5052602;28;20500;-73
2022/08/10 04:16:43;;;;;;;0.10;0.10;;;15.80;95.40;;;;;;5053423;28;20461;-73
2022/08/10 04:19:10;;;;;;;0.10;0.10;;;16.00;95.00;;;;;;5053464;28;20025;-73
2022/08/10 04:21:39;;;;;;;0.10;0.10;;;16.30;95.20;;;;;;5035512;28;20392;-73
2022/08/10 04:24:06;;;;;;;0.28;0.28;;;16.50;94.60;;;;;;5054446;28;20020;-73
2022/08/10 04:26:32;;;;;;;1.00;0.98;;;16.40;93.90;;;;;;5073144;28;20020;-73
2022/08/10 04:28:58;;;;;;;0.20;0.20;;;16.30;94.30;;;;;;5035329;28;20025;-73
2022/08/10 04:31:26;;;;;;;0.10;0.10;;;16.50;93.90;;;;;;5058244;28;20031;-73
2022/08/10 04:33:54;;;;;;;0.10;0.10;;;16.70;93.80;;;;;;5073385;28;20055;-73
2022/08/10 04:36:40;;;;;;;0.10;0.10;;;16.80;93.30;;;;;;5054490;28;20029;-73
2022/08/10 04:39:07;;;;;;;0.20;0.20;;;16.60;93.40;;;;;;5051462;28;20506;-73
2022/08/10 04:41:34;;;;;;;0.17;0.17;;;16.60;94.60;;;;;;5051500;28;20396;-73
2022/08/10 04:44:00;;;;;;;0.20;0.20;;;16.70;94.10;;;;;;5052946;28;20053;-73
2022/08/10 04:48:54;;;;;;;0.10;0.10;;;16.60;95.00;;;;;;5052010;28;20059;-73
2022/08/10 04:51:19;;;;;;;0.20;0.20;;;16.30;96.40;;;;;;5052756;28;20017;-74
2022/08/10 04:53:50;;;;;;;0.20;0.20;;;16.00;97.50;;;;;;5051179;28;20448;-74
2022/08/10 04:56:16;;;;;;;0.10;0.10;;;15.90;99.30;;;;;;5052165;28;20032;-75
2022/08/10 04:58:41;;;;;;;0.20;0.20;;;16.20;99.90;;;;;;5052223;28;20025;-75
2022/08/10 05:01:07;;;;;;;0.10;0.10;;;16.40;98.10;;;;;;5051039;28;20025;-74
2022/08/10 05:03:33;;;;;;;0.30;0.30;;;16.70;97.40;;;;;;5051141;28;20029;-73
2022/08/10 05:05:59;;;;;;;0.40;0.40;;;16.90;97.00;;;;;;5051259;28;20024;-73
2022/08/10 05:08:25;;;;;;;0.10;0.10;;;16.60;97.10;;;;;;5050498;28;20021;-73
2022/08/10 05:10:52;;;;;;;0.40;0.40;;;16.70;97.00;;;;;;5050808;28;20392;-73
2022/08/10 05:13:18;;;;;;;0.10;0.10;;;16.30;99.40;;;;;;5052193;28;20036;-73
2022/08/10 05:15:44;;;;;;;0.20;0.20;;;16.40;99.90;;;;;;5056697;28;20029;-73
2022/08/10 05:18:11;;;;;;;0.10;0.10;;;16.60;98.50;;;;;;5052674;28;20040;-74
2022/08/10 05:20:37;;;;;;;0.10;0.10;;;16.90;98.40;;;;;;5051577;28;20025;-74
2022/08/10 05:23:03;;;;;;;1.88;0.52;;;16.90;98.70;;;;;;5050643;28;20028;-73
2022/08/10 05:25:29;;;;;;;0.17;0.17;;;17.00;97.20;;;;;;5050649;28;20033;-74
2022/08/10 05:27:55;;;;;;;0.10;0.10;;;16.90;97.80;;;;;;5050335;28;20020;-75
2022/08/10 05:30:22;;;;;;;0.10;0.10;;;16.80;98.40;;;;;;5060942;28;20021;-75
2022/08/10 05:32:48;;;;;;;0.10;0.10;;;16.90;99.10;;;;;;5058369;28;20017;-75
2022/08/10 05:35:14;;;;;;;7.13;6.60;;;17.20;99.00;;;;;;5050159;28;20060;-76
2022/08/10 05:37:42;;;;;;;0.10;0.10;;;17.20;97.80;;;;;;5049865;28;20538;-75
2022/08/10 05:40:08;;;;;;;0.52;0.32;;;16.90;99.10;;;;;;5049411;28;20423;-75
2022/08/10 05:42:34;;;;;;;0.45;0.45;;;16.90;99.50;;;;;;5049953;28;20385;-75
2022/08/10 05:45:00;;;;;;;0.40;0.40;;;16.80;99.90;;;;;;5050311;28;20017;-76
2022/08/10 05:47:26;;;;;;;1.08;0.98;;;16.80;99.90;;;;;;5052783;28;20553;-76
2022/08/10 05:49:52;;;;;;;0.50;0.50;;;16.80;99.90;;;;;;5051735;28;20071;-75
2022/08/10 05:52:18;;;;;;;0.10;0.10;;;17.00;99.90;;;;;;5050283;28;20116;-75
2022/08/10 05:54:45;;;;;;;8.15;0.57;;;17.10;99.90;;;;;;5051781;28;20029;-73
2022/08/10 05:57:12;;;;;;;0.20;0.20;;;17.20;99.90;;;;;;5051480;28;20029;-73
2022/08/10 05:59:48;;;;;;;0.10;0.10;;;17.40;99.90;;;;;;5051626;28;20472;-74
2022/08/10 06:02:23;;;;;;;0.38;0.38;;;17.40;99.90;;;;;;5051754;28;20083;-74
2022/08/10 06:04:50;;;;;;;0.20;0.20;;;17.50;99.90;;;;;;5051547;28;20461;-74
2022/08/10 06:07:19;;;;;;;0.38;0.38;;;17.30;99.90;;;;;;5051405;28;20142;-74
2022/08/10 06:09:47;;;;;;;0.28;0.28;;;17.50;99.90;;;;;;5051502;28;20017;-74
2022/08/10 06:12:13;;;;;;;0.10;0.10;;;17.50;99.90;;;;;;5051749;28;20427;-74
2022/08/10 06:14:59;;;;;;;0.63;0.63;;;17.60;99.90;;;;;;5050272;28;20025;-74
2022/08/10 06:17:28;;;;;;;0.50;0.50;;;17.80;99.90;;;;;;5058322;28;20081;-74
2022/08/10 06:19:57;;;;;;;0.10;0.10;;;17.70;99.70;;;;;;5036524;28;20393;-75
2022/08/10 06:22:28;;;;;;;0.10;0.10;;;17.70;99.90;;;;;;5071446;28;20062;-74
2022/08/10 06:25:01;;;;;;;3.10;1.02;;;17.80;99.90;;;;;;5070052;28;20025;-73
2022/08/10 06:27:27;;;;;;;0.10;0.10;;;17.70;99.90;;;;;;5070011;28;20021;-74
2022/08/10 06:29:54;;;;;;;1.10;0.90;;;17.90;99.90;;;;;;5074095;28;20025;-75
2022/08/10 06:32:24;;;;;;;0.10;0.10;;;18.10;99.90;;;;;;5074044;28;20052;-75
2022/08/10 06:34:57;;;;;;;0.00;0.00;;;18.10;99.90;;;;;;5073734;28;20025;-74
2022/08/10 06:37:28;;;;;;;0.20;0.20;;;18.10;99.90;;;;;;5073064;28;20387;-74
2022/08/10 06:39:54;;;;;;;0.05;0.05;;;18.10;99.90;;;;;;5072494;28;20475;-74
2022/08/10 06:42:28;;;;;;;2.00;0.73;;;18.30;99.90;;;;;;5074587;28;20029;-74
2022/08/10 06:45:02;;;;;;;0.30;0.30;;;18.40;99.90;;;;;;5066711;28;20020;-75
2022/08/10 06:47:42;;;;;;;0.20;0.20;;;18.40;99.90;;;;;;5040396;28;20075;-74
2022/08/10 06:50:36;;;;;;;0.10;0.10;;;18.60;99.70;;;;;;5069714;28;20059;-74
2022/08/10 06:53:05;;;;;;;0.10;0.10;;;18.70;99.50;;;;;;5069282;28;20031;-74
2022/08/10 06:55:32;;;;;;;0.10;0.10;;;18.70;99.70;;;;;;5052876;28;20028;-74
2022/08/10 06:58:00;;;;;;;0.65;0.65;;;18.80;99.70;;;;;;5054039;28;20111;-74
2022/08/10 07:00:28;;;;;;;0.20;0.20;;;19.00;99.10;;;;;;5052554;28;20033;-73
2022/08/10 07:02:57;;;;;;;0.45;0.45;;;19.00;98.10;;;;;;5053203;28;20465;-73
2022/08/10 07:05:26;;;;;;;1.65;1.45;;;19.00;98.70;;;;;;5036759;28;20055;-74
2022/08/10 07:07:56;;;;;;;1.23;0.50;;;19.10;98.30;;;;;;5053090;28;20017;-74
2022/08/10 07:10:25;;;;;;;0.10;0.10;;;19.10;98.20;;;;;;5053398;28;20094;-74
2022/08/10 07:12:59;;;;;;;0.10;0.10;;;19.10;98.30;;;;;;5054493;28;20056;-74
2022/08/10 07:15:26;;;;;;;0.10;0.10;;;19.20;98.00;;;;;;5054269;28;20067;-74
2022/08/10 07:17:53;;;;;;;0.10;0.10;;;19.40;97.80;;;;;;5053990;28;20417;-75
2022/08/10 07:20:20;;;;;;;0.40;0.40;;;19.50;98.10;;;;;;5054124;28;20024;-74
2022/08/10 07:22:48;;;;;;;1.10;0.73;;;19.60;97.20;;;;;;5052729;28;20075;-74
2022/08/10 07:25:18;;;;;;;0.50;0.47;;;19.50;97.50;;;;;;5053646;28;20480;-73
2022/08/10 07:27:44;;;;;;;0.43;0.43;;;19.50;97.80;;;;;;5035413;28;20052;-74
2022/08/10 07:30:10;;;;;;;0.10;0.10;;;19.80;97.00;;;;;;5053808;28;20029;-74
2022/08/10 07:32:38;;;;;;;0.85;0.40;;;20.00;96.20;;;;;;5052876;28;20079;-74
2022/08/10 07:35:05;;;;;;;0.10;0.10;;;20.00;95.70;;;;;;5054726;28;20029;-77
2022/08/10 07:37:34;;;;;;;0.38;0.38;;;20.20;95.40;;;;;;5053403;28;20099;-76
2022/08/10 07:40:02;;;;;;;0.85;0.82;;;20.40;95.30;;;;;;5051620;28;20029;-76
2022/08/10 07:42:29;;;;;;;2.17;1.35;;;20.50;94.30;;;;;;5056885;28;20021;-77
2022/08/10 07:44:56;;;;;;;0.40;0.40;;;20.10;95.00;;;;;;5036086;28;20028;-76
2022/08/10 07:47:27;;;;;;;0.35;0.35;;;20.00;94.70;;;;;;5036810;28;20036;-76
2022/08/10 07:49:57;;;;;;;2.90;1.77;;;20.10;95.10;;;;;;5053136;28;20033;-76
2022/08/10 07:52:24;;;;;;;1.75;1.40;;;20.20;94.60;;;;;;5053055;28;20481;-77
2022/08/10 07:54:52;;;;;;;0.25;0.25;;;20.30;94.60;;;;;;5053058;28;20054;-77
2022/08/10 07:57:28;;;;;;;1.25;1.15;;;20.60;94.50;;;;;;5053301;28;20021;-76
2022/08/10 07:59:58;;;;;;;0.10;0.10;;;20.60;93.50;;;;;;5053942;28;20021;-77
2022/08/10 08:02:33;;;;;;;0.38;0.38;;;20.70;93.00;;;;;;5054033;28;20044;-77
2022/08/10 08:05:05;;;;;;;0.30;0.30;;;20.80;93.30;;;;;;5055002;28;20021;-77
2022/08/10 08:07:33;;;;;;;1.95;1.48;;;21.10;92.80;;;;;;5053598;28;20115;-77
2022/08/10 08:10:00;;;;;;;0.10;0.10;;;21.00;92.00;;;;;;5054865;28;20480;-76
2022/08/10 08:12:27;;;;;;;0.20;0.20;;;21.30;91.80;;;;;;5051972;28;20484;-77
2022/08/10 08:14:55;;;;;;;0.52;0.52;;;21.60;92.00;;;;;;5039037;28;20031;-78
2022/08/10 08:17:25;;;;;;;1.00;0.70;;;21.80;90.30;;;;;;5041382;28;20439;-78
2022/08/10 08:19:53;;;;;;;0.70;0.47;;;21.70;89.50;;;;;;5054989;28;20036;-76
2022/08/10 08:22:19;;;;;;;0.43;0.43;;;21.80;89.50;;;;;;5054689;28;20060;-77
2022/08/10 08:24:48;;;;;;;0.20;0.20;;;22.00;89.70;;;;;;5054957;28;20131;-78
2022/08/10 08:27:16;;;;;;;0.65;0.65;;;22.20;88.10;;;;;;5055164;28;20029;-77
2022/08/10 08:29:44;;;;;;;1.73;0.70;;;22.30;87.00;;;;;;5051671;28;20021;-77
2022/08/10 08:32:12;;;;;;;0.08;0.08;;;22.40;84.80;;;;;;5045797;28;20071;-78
2022/08/10 08:34:41;;;;;;;0.93;0.93;;;22.50;84.50;;;;;;5038635;28;20021;-78
2022/08/10 08:37:08;;;;;;;1.08;1.08;;;22.70;83.00;;;;;;5053899;28;20021;-78
2022/08/10 08:39:35;;;;;;;1.25;0.40;;;22.70;82.90;;;;;;5054477;28;20021;-78
2022/08/10 08:42:26;;;;;;;0.10;0.10;;;22.80;82.70;;;;;;5056361;28;20017;-77
2022/08/10 08:45:04;;;;;;;0.08;0.08;;;22.90;82.10;;;;;;5053539;28;20522;-77
2022/08/10 08:47:57;;;;;;;1.45;0.63;;;23.20;80.90;;;;;;5036840;28;20040;-77
2022/08/10 08:50:29;;;;;;;0.65;0.47;;;23.50;79.50;;;;;;5037177;28;20070;-77
2022/08/10 08:53:23;;;;;;;3.42;1.60;;;23.70;79.10;;;;;;5053818;28;20047;-77
2022/08/10 08:55:56;;;;;;;0.60;0.60;;;23.70;76.60;;;;;;5053234;28;20442;-77
2022/08/10 08:58:46;;;;;;;0.55;0.55;;;23.90;75.50;;;;;;5054120;28;20037;-78
2022/08/10 09:01:30;;;;;;;0.30;0.30;;;24.00;75.30;;;;;;5055394;28;20021;-77
2022/08/10 09:04:31;;;;;;;1.27;0.93;;;24.30;75.10;;;;;;5054086;28;20083;-78
2022/08/10 09:07:32;;;;;;;0.05;0.05;;;24.60;72.70;;;;;;5054718;28;20329;-77
2022/08/10 09:10:16;;;;;;;1.38;1.33;;;24.80;72.50;;;;;;5054015;28;20021;-77
2022/08/10 09:13:25;;;;;;;0.20;0.20;;;24.80;72.00;;;;;;5052619;28;20031;-77
2022/08/10 09:16:08;;;;;;;2.28;0.47;;;25.50;70.50;;;;;;5015721;28;20029;-77
2022/08/10 09:18:51;;;;;;;0.60;0.60;;;25.70;68.80;;;;;;5053041;28;20037;-77
2022/08/10 09:21:42;;;;;;;6.40;0.70;;;25.60;67.10;;;;;;5055414;28;20032;-78
2022/08/10 09:24:33;;;;;;;0.57;0.57;;;25.80;65.30;;;;;;5036534;28;20585;-78
2022/08/10 09:27:08;;;;;;;0.28;0.25;;;26.00;63.80;;;;;;5055204;28;20679;-78
2022/08/10 09:29:45;;;;;;;1.15;0.45;;;25.90;62.40;;;;;;5058031;28;20025;-77
2022/08/10 09:32:29;;;;;;;3.50;0.85;;;26.10;60.90;;;;;;5054418;28;20013;-78
2022/08/10 09:35:07;;;;;;;0.50;0.50;;;26.10;59.60;;;;;;5053247;28;20057;-78
2022/08/10 09:37:45;;;;;;;0.30;0.30;;;26.30;58.50;;;;;;5054358;28;20051;-78
2022/08/10 09:40:35;;;;;;;0.70;0.63;;;26.50;57.90;;;;;;5054592;28;20100;-77
2022/08/10 09:43:36;;;;;;;0.20;0.20;;;26.60;56.10;;;;;;5049673;28;20044;-77
2022/08/10 09:46:17;;;;;;;;;;;26.60;55.50;;;;;;5043461;28;20141;-77
2022/08/10 09:49:09;;;;;;;0.30;0.30;;;26.70;56.30;;;;;;5051774;28;19936;-77
2022/08/10 09:52:06;;;;;;;0.60;0.30;;;26.90;54.20;;;;;;5050607;28;20126;-77
2022/08/10 09:54:38;;;;;;;0.10;0.10;;;26.80;53.60;;;;;;5051195;28;20374;-77
2022/08/10 09:57:15;;;;;;;2.05;0.30;;;27.00;53.40;;;;;;5035101;28;20020;-77
2022/08/10 10:00:18;;;;;;;1.15;0.57;;;27.00;52.80;;;;;;5052745;28;20048;-78
2022/08/10 10:03:13;;;;;;;0.10;0.10;;;27.00;51.90;;;;;;5027933;28;20424;-76
2022/08/10 10:05:57;;;;;;;0.20;0.20;;;27.10;51.10;;;;;;5055177;28;20110;-76
2022/08/10 10:08:39;;;;;;;0.05;0.05;;;27.40;50.80;;;;;;5054463;28;20021;-76
2022/08/10 10:11:21;;;;;;;0.10;0.10;;;27.40;49.30;;;;;;5053693;28;20025;-76
2022/08/10 10:14:14;;;;;;;2.50;0.60;;;27.70;50.60;;;;;;5037328;28;20024;-75
2022/08/10 10:17:02;;;;;;;0.20;0.20;;;27.50;50.40;;;;;;5055243;28;20033;-75
2022/08/10 10:19:34;;;;;;;0.20;0.20;;;27.80;50.20;;;;;;5054234;28;20048;-73
2022/08/10 10:22:15;;;;;;;0.05;0.05;;;27.60;50.40;;;;;;5054869;28;20029;-75
2022/08/10 10:25:12;;;;;;;0.20;0.10;;;27.80;49.70;;;;;;5052914;28;20108;-75
2022/08/10 10:27:56;;;;;;;0.10;0.10;;;27.80;49.40;;;;;;5055017;28;20107;-76
2022/08/10 10:30:25;;;;;;;0.00;0.00;;;27.90;49.80;;;;;;5054893;28;20024;-75
2022/08/10 10:33:12;;;;;;;0.10;0.10;;;28.40;49.10;;;;;;5031531;28;20027;-75
2022/08/10 10:35:50;;;;;;;0.43;0.30;;;28.30;48.80;;;;;;5035143;28;20431;-77
2022/08/10 10:38:20;;;;;;;0.47;0.30;;;28.40;46.60;;;;;;5046656;28;20032;-76
2022/08/10 10:41:02;;;;;;;0.43;0.28;;;28.50;46.60;;;;;;5054695;28;20032;-75
2022/08/10 10:43:34;;;;;;;0.55;0.35;;;28.80;46.60;;;;;;5054793;28;20079;-77
2022/08/10 10:46:23;;;;;;;0.10;0.10;;;28.90;45.90;;;;;;5054227;28;20040;-75
2022/08/10 10:49:05;;;;;;;0.30;0.30;;;28.80;45.90;;;;;;5052955;28;20068;-75
2022/08/10 10:51:44;;;;;;;0.10;0.10;;;28.70;44.00;;;;;;5054159;28;20027;-75
2022/08/10 10:54:43;;;;;;;0.10;0.10;;;28.60;45.40;;;;;;5053013;28;20025;-75
2022/08/10 10:57:18;;;;;;;1.70;0.50;;;28.70;46.20;;;;;;5053030;28;20037;-76
2022/08/10 11:00:10;;;;;;;0.50;0.25;;;28.90;46.20;;;;;;5053037;28;20021;-75
2022/08/10 11:02:54;;;;;;;;;;;28.80;45.90;;;;;;5054772;28;20108;-76
2022/08/10 11:05:29;;;;;;;0.20;0.20;;;29.00;45.20;;;;;;5052780;28;19904;-77
2022/08/10 11:08:11;;;;;;;0.03;0.03;;;28.60;45.30;;;;;;5052803;28;20033;-76
2022/08/10 11:10:44;;;;;;;0.10;0.10;;;28.70;44.90;;;;;;5054110;28;20021;-76
2022/08/10 11:13:43;;;;;;;0.30;0.30;;;28.90;44.40;;;;;;5053898;28;20033;-75
2022/08/10 11:16:30;;;;;;;1.45;0.55;;;28.90;43.50;;;;;;5042746;28;20564;-76
2022/08/10 11:19:14;;;;;;;0.20;0.20;;;28.90;43.70;;;;;;5053010;28;20033;-76
2022/08/10 11:22:06;;;;;;;1.00;0.52;;;29.10;42.70;;;;;;5053213;28;20056;-75
2022/08/10 11:24:43;;;;;;;0.10;0.10;;;29.40;43.10;;;;;;5054264;28;20052;-76
2022/08/10 11:27:24;;;;;;;0.28;0.28;;;29.60;42.70;;;;;;5052560;28;20029;-76
2022/08/10 11:30:12;;;;;;;0.03;0.03;;;29.30;43.40;;;;;;5052788;28;20118;-76
2022/08/10 11:32:47;;;;;;;0.00;0.00;;;29.50;43.50;;;;;;5052525;28;20033;-75
2022/08/10 11:35:31;;;;;;;0.40;0.40;;;29.50;44.20;;;;;;5052704;28;20061;-76
2022/08/10 11:38:11;;;;;;;0.15;0.15;;;29.60;43.10;;;;;;5053727;28;20028;-75
2022/08/10 11:40:46;;;;;;;5.63;0.17;;;29.70;42.80;;;;;;5052781;28;20584;-75
2022/08/10 11:43:22;;;;;;;0.00;0.00;;;29.90;42.60;;;;;;5053931;28;20059;-76
2022/08/10 11:45:55;;;;;;;0.20;0.10;;;30.30;42.90;;;;;;5052104;28;20021;-77
2022/08/10 11:48:26;;;;;;;0.00;0.00;;;30.50;41.40;;;;;;5052398;28;20542;-75
2022/08/10 11:50:58;;;;;;;0.25;0.20;;;30.30;40.60;;;;;;5053227;28;20404;-75
2022/08/10 11:53:30;;;;;;;1.90;1.60;;;30.30;41.10;;;;;;5053023;28;20087;-75
2022/08/10 11:55:58;;;;;;;0.00;0.00;;;30.20;41.20;;;;;;5053524;28;20107;-75
2022/08/10 12:01:19;;;;;;;0.82;0.45;;;29.50;41.60;;;;;;5051908;28;20119;-76
2022/08/10 12:03:46;;;;;;;0.73;0.10;;;29.60;40.50;;;;;;5053838;28;20046;-77
2022/08/10 12:06:19;;;;;;;1.45;0.30;;;29.40;41.40;;;;;;5057367;28;20280;-78
2022/08/10 12:08:46;;;;;;;0.10;0.10;;;29.20;42.60;;;;;;5057591;28;20070;-78
2022/08/10 12:11:15;;;;;;;0.50;0.50;;;28.90;44.50;;;;;;5038788;28;20036;-78
2022/08/10 12:14:05;;;;;;;0.00;0.00;;;28.20;44.90;;;;;;5056894;28;20063;-78
2022/08/10 12:16:38;;;;;;;0.10;0.10;;;28.10;45.60;;;;;;5058514;28;20036;-78
2022/08/10 12:19:22;;;;;;;0.00;0.00;;;28.20;46.60;;;;;;5057875;28;20108;-78
2022/08/10 12:22:05;;;;;;;0.30;0.30;;;28.30;45.20;;;;;;5058048;28;20021;-78
2022/08/10 12:24:55;;;;;;;0.10;0.10;;;28.20;44.80;;;;;;5057757;28;20111;-78
2022/08/10 12:27:29;;;;;;;0.15;0.15;;;28.00;44.50;;;;;;5039958;28;20036;-78
2022/08/10 12:30:05;;;;;;;0.22;0.20;;;27.80;45.70;;;;;;5063298;28;20469;-79
2022/08/10 12:32:41;;;;;;;0.10;0.10;;;27.50;45.20;;;;;;5026990;28;20025;-77
2022/08/10 12:35:39;;;;;;;0.73;0.15;;;27.10;45.90;;;;;;5046841;28;20033;-77
2022/08/10 12:38:22;;;;;;;0.10;0.10;;;26.80;46.50;;;;;;5053095;28;20074;-77
2022/08/10 12:40:59;;;;;;;0.20;0.20;;;26.50;47.10;;;;;;5051396;28;20241;-77
2022/08/10 12:43:50;;;;;;;2.10;0.20;;;26.30;47.70;;;;;;5051231;28;20029;-77
2022/08/10 12:46:15;;;;;;;0.00;0.00;;;26.10;47.80;;;;;;5043787;28;20026;-77
2022/08/10 12:48:53;;;;;;;0.47;0.25;;;26.20;48.30;;;;;;5018377;28;20022;-77
2022/08/10 12:51:27;;;;;;;0.15;0.15;;;26.20;47.20;;;;;;5036002;28;20057;-78
2022/08/10 12:54:11;;;;;;;0.40;0.35;;;26.10;47.80;;;;;;5018645;28;20026;-77
2022/08/10 12:56:42;;;;;;;1.55;0.75;;;26.30;47.80;;;;;;5036089;28;20060;-78
2022/08/10 12:59:13;;;;;;;1.10;0.45;;;26.20;47.70;;;;;;5034943;28;20018;-77
2022/08/10 13:01:40;;;;;;;1.08;0.30;;;26.30;47.90;;;;;;5019076;28;20037;-80
2022/08/10 13:04:13;;;;;;;0.30;0.30;;;26.20;47.40;;;;;;5055104;28;20397;-75
2022/08/10 13:06:46;;;;;;;0.10;0.10;;;26.40;47.00;;;;;;5051790;28;20086;-73
2022/08/10 13:09:13;;;;;;;0.13;0.13;;;26.30;46.90;;;;;;5051944;28;20104;-73
2022/08/10 13:12:01;;;;;;;0.30;0.28;;;26.00;47.20;;;;;;5051488;28;20025;-72
2022/08/10 13:14:51;;;;;;;0.77;0.50;;;25.80;46.90;;;;;;5051407;28;20035;-74
2022/08/10 13:17:28;;;;;;;0.00;0.00;;;25.80;47.00;;;;;;5051611;28;20485;-73
2022/08/10 13:19:56;;;;;;;0.10;0.10;;;25.60;47.20;;;;;;5051545;28;20481;-74
2022/08/10 13:22:26;;;;;;;0.95;0.30;;;25.80;47.10;;;;;;5050515;28;20032;-74
2022/08/10 13:24:53;;;;;;;0.38;0.38;;;25.80;47.30;;;;;;5051225;28;20094;-72
2022/08/10 13:27:26;;;;;;;0.00;0.00;;;25.40;47.00;;;;;;5051392;28;20473;-74
2022/08/10 13:29:59;;;;;;;0.32;0.32;;;25.70;47.60;;;;;;5051846;28;20055;-72